sensor_id;sensor_type;location;lat;lon;timestamp;P1;durP1;ratioP1;P2;durP2;ratioP2
32108;SDS011;18624;50.042;8.436;2024-03-22T00:01:44;17.17;;;14.48;;
32108;SDS011;18624;50.042;8.436;2024-03-22T00:04:10;17.33;;;14.00;;
32108;SDS011;18624;50.042;8.436;2024-03-22T00:06:36;19.27;;;15.05;;
32108;SDS011;18624;50.042;8.436;2024-03-22T00:09:01;17.13;;;15.20;;
32108;SDS011;18624;50.042;8.436;2024-03-22T00:11:27;19.13;;;15.60;;
32108;SDS011;18624;50.042;8.436;2024-03-22T00:13:52;21.30;;;15.80;;
32108;SDS011;18624;50.042;8.436;2024-03-22T00:16:18;18.48;;;15.80;;
32108;SDS011;18624;50.042;8.436;2024-03-22T00:18:43;18.98;;;14.60;;
32108;SDS011;18624;50.042;8.436;2024-03-22T00:21:09;19.65;;;15.27;;
32108;SDS011;18624;50.042;8.436;2024-03-22T00:23:34;19.63;;;15.63;;
32108;SDS011;18624;50.042;8.436;2024-03-22T00:26:01;16.38;;;13.73;;
32108;SDS011;18624;50.042;8.436;2024-03-22T00:28:26;17.42;;;14.68;;
32108;SDS011;18624;50.042;8.436;2024-03-22T00:30:52;18.73;;;15.20;;
32108;SDS011;18624;50.042;8.436;2024-03-22T00:33:17;19.63;;;15.50;;
32108;SDS011;18624;50.042;8.436;2024-03-22T00:35:43;19.85;;;15.20;;
32108;SDS011;18624;50.042;8.436;2024-03-22T00:38:08;17.45;;;15.18;;
32108;SDS011;18624;50.042;8.436;2024-03-22T00:40:34;18.17;;;14.52;;
32108;SDS011;18624;50.042;8.436;2024-03-22T00:42:59;18.13;;;13.43;;
32108;SDS011;18624;50.042;8.436;2024-03-22T00:45:25;20.08;;;16.10;;
32108;SDS011;18624;50.042;8.436;2024-03-22T00:47:51;18.58;;;15.85;;
32108;SDS011;18624;50.042;8.436;2024-03-22T00:50:16;16.73;;;14.05;;
32108;SDS011;18624;50.042;8.436;2024-03-22T00:52:42;18.75;;;15.38;;
32108;SDS011;18624;50.042;8.436;2024-03-22T00:55:07;17.02;;;13.77;;
32108;SDS011;18624;50.042;8.436;2024-03-22T00:57:33;17.05;;;14.38;;
32108;SDS011;18624;50.042;8.436;2024-03-22T00:59:59;19.60;;;16.23;;
32108;SDS011;18624;50.042;8.436;2024-03-22T01:02:24;20.77;;;14.80;;
32108;SDS011;18624;50.042;8.436;2024-03-22T01:04:50;19.02;;;15.25;;
32108;SDS011;18624;50.042;8.436;2024-03-22T01:07:15;17.73;;;14.20;;
32108;SDS011;18624;50.042;8.436;2024-03-22T01:09:41;17.67;;;15.05;;
32108;SDS011;18624;50.042;8.436;2024-03-22T01:12:09;19.98;;;15.15;;
32108;SDS011;18624;50.042;8.436;2024-03-22T01:14:35;17.67;;;15.63;;
32108;SDS011;18624;50.042;8.436;2024-03-22T01:17:01;20.48;;;15.38;;
32108;SDS011;18624;50.042;8.436;2024-03-22T01:19:27;18.30;;;14.18;;
32108;SDS011;18624;50.042;8.436;2024-03-22T01:21:53;16.92;;;13.88;;
32108;SDS011;18624;50.042;8.436;2024-03-22T01:24:18;18.45;;;13.82;;
32108;SDS011;18624;50.042;8.436;2024-03-22T01:26:44;18.38;;;14.27;;
32108;SDS011;18624;50.042;8.436;2024-03-22T01:29:09;20.90;;;14.88;;
32108;SDS011;18624;50.042;8.436;2024-03-22T01:31:35;19.45;;;14.52;;
32108;SDS011;18624;50.042;8.436;2024-03-22T01:34:00;18.13;;;14.35;;
32108;SDS011;18624;50.042;8.436;2024-03-22T01:36:26;17.25;;;13.57;;
32108;SDS011;18624;50.042;8.436;2024-03-22T01:38:51;17.85;;;14.00;;
32108;SDS011;18624;50.042;8.436;2024-03-22T01:41:17;18.63;;;13.63;;
32108;SDS011;18624;50.042;8.436;2024-03-22T01:43:43;18.50;;;14.65;;
32108;SDS011;18624;50.042;8.436;2024-03-22T01:46:09;18.58;;;13.73;;
32108;SDS011;18624;50.042;8.436;2024-03-22T01:48:35;19.38;;;14.98;;
32108;SDS011;18624;50.042;8.436;2024-03-22T01:51:01;19.77;;;13.70;;
32108;SDS011;18624;50.042;8.436;2024-03-22T01:53:27;19.85;;;14.70;;
32108;SDS011;18624;50.042;8.436;2024-03-22T01:55:53;17.15;;;13.00;;
32108;SDS011;18624;50.042;8.436;2024-03-22T01:58:19;17.98;;;13.48;;
32108;SDS011;18624;50.042;8.436;2024-03-22T02:00:44;15.77;;;11.63;;
32108;SDS011;18624;50.042;8.436;2024-03-22T02:03:11;18.33;;;13.18;;
32108;SDS011;18624;50.042;8.436;2024-03-22T02:05:36;16.33;;;13.10;;
32108;SDS011;18624;50.042;8.436;2024-03-22T02:08:02;19.90;;;14.93;;
32108;SDS011;18624;50.042;8.436;2024-03-22T02:10:27;19.33;;;12.80;;
32108;SDS011;18624;50.042;8.436;2024-03-22T02:12:53;18.63;;;14.55;;
32108;SDS011;18624;50.042;8.436;2024-03-22T02:15:19;16.60;;;12.73;;
32108;SDS011;18624;50.042;8.436;2024-03-22T02:17:44;14.20;;;11.93;;
32108;SDS011;18624;50.042;8.436;2024-03-22T02:20:10;15.90;;;11.55;;
32108;SDS011;18624;50.042;8.436;2024-03-22T02:22:37;18.60;;;12.82;;
32108;SDS011;18624;50.042;8.436;2024-03-22T02:25:03;16.42;;;12.43;;
32108;SDS011;18624;50.042;8.436;2024-03-22T02:27:29;17.23;;;12.88;;
32108;SDS011;18624;50.042;8.436;2024-03-22T02:29:55;17.17;;;13.38;;
32108;SDS011;18624;50.042;8.436;2024-03-22T02:32:20;16.35;;;12.63;;
32108;SDS011;18624;50.042;8.436;2024-03-22T02:34:46;15.85;;;12.50;;
32108;SDS011;18624;50.042;8.436;2024-03-22T02:37:11;19.13;;;13.90;;
32108;SDS011;18624;50.042;8.436;2024-03-22T02:39:37;20.23;;;13.00;;
32108;SDS011;18624;50.042;8.436;2024-03-22T02:42:03;17.58;;;12.60;;
32108;SDS011;18624;50.042;8.436;2024-03-22T02:44:28;17.38;;;13.40;;
32108;SDS011;18624;50.042;8.436;2024-03-22T02:46:54;23.13;;;14.93;;
32108;SDS011;18624;50.042;8.436;2024-03-22T02:49:19;20.58;;;15.32;;
32108;SDS011;18624;50.042;8.436;2024-03-22T02:51:45;21.02;;;14.80;;
32108;SDS011;18624;50.042;8.436;2024-03-22T02:54:10;17.80;;;14.50;;
32108;SDS011;18624;50.042;8.436;2024-03-22T02:56:36;19.63;;;14.38;;
32108;SDS011;18624;50.042;8.436;2024-03-22T02:59:01;15.63;;;11.95;;
32108;SDS011;18624;50.042;8.436;2024-03-22T03:01:27;16.67;;;12.23;;
32108;SDS011;18624;50.042;8.436;2024-03-22T03:03:53;20.30;;;14.40;;
32108;SDS011;18624;50.042;8.436;2024-03-22T03:06:18;17.45;;;14.05;;
32108;SDS011;18624;50.042;8.436;2024-03-22T03:08:45;16.48;;;11.80;;
32108;SDS011;18624;50.042;8.436;2024-03-22T03:11:11;20.40;;;15.07;;
32108;SDS011;18624;50.042;8.436;2024-03-22T03:13:37;21.92;;;16.05;;
32108;SDS011;18624;50.042;8.436;2024-03-22T03:16:02;17.73;;;14.35;;
32108;SDS011;18624;50.042;8.436;2024-03-22T03:18:28;18.65;;;13.52;;
32108;SDS011;18624;50.042;8.436;2024-03-22T03:20:54;18.23;;;13.82;;
32108;SDS011;18624;50.042;8.436;2024-03-22T03:23:19;17.30;;;13.32;;
32108;SDS011;18624;50.042;8.436;2024-03-22T03:25:45;18.60;;;13.60;;
32108;SDS011;18624;50.042;8.436;2024-03-22T03:28:11;19.83;;;13.85;;
32108;SDS011;18624;50.042;8.436;2024-03-22T03:30:38;18.08;;;13.05;;
32108;SDS011;18624;50.042;8.436;2024-03-22T03:33:04;17.55;;;13.35;;
32108;SDS011;18624;50.042;8.436;2024-03-22T03:35:29;19.35;;;14.73;;
32108;SDS011;18624;50.042;8.436;2024-03-22T03:37:55;18.25;;;13.20;;
32108;SDS011;18624;50.042;8.436;2024-03-22T03:40:21;18.45;;;13.93;;
32108;SDS011;18624;50.042;8.436;2024-03-22T03:42:50;18.48;;;12.70;;
32108;SDS011;18624;50.042;8.436;2024-03-22T03:45:16;19.67;;;14.13;;
32108;SDS011;18624;50.042;8.436;2024-03-22T03:47:41;20.38;;;13.93;;
32108;SDS011;18624;50.042;8.436;2024-03-22T03:50:07;20.45;;;14.52;;
32108;SDS011;18624;50.042;8.436;2024-03-22T03:52:33;19.90;;;12.95;;
32108;SDS011;18624;50.042;8.436;2024-03-22T03:54:59;19.27;;;13.57;;
32108;SDS011;18624;50.042;8.436;2024-03-22T03:57:24;19.92;;;13.15;;
32108;SDS011;18624;50.042;8.436;2024-03-22T03:59:51;18.58;;;13.57;;
32108;SDS011;18624;50.042;8.436;2024-03-22T04:02:16;17.70;;;12.88;;
32108;SDS011;18624;50.042;8.436;2024-03-22T04:04:42;17.13;;;12.90;;
32108;SDS011;18624;50.042;8.436;2024-03-22T04:07:07;19.88;;;14.07;;
32108;SDS011;18624;50.042;8.436;2024-03-22T04:09:33;20.25;;;14.93;;
32108;SDS011;18624;50.042;8.436;2024-03-22T04:11:59;19.65;;;13.10;;
32108;SDS011;18624;50.042;8.436;2024-03-22T04:14:25;16.58;;;12.85;;
32108;SDS011;18624;50.042;8.436;2024-03-22T04:16:51;16.27;;;13.13;;
32108;SDS011;18624;50.042;8.436;2024-03-22T04:19:16;20.90;;;14.48;;
32108;SDS011;18624;50.042;8.436;2024-03-22T04:21:42;18.67;;;14.70;;
32108;SDS011;18624;50.042;8.436;2024-03-22T04:24:08;20.00;;;15.70;;
32108;SDS011;18624;50.042;8.436;2024-03-22T04:26:33;17.10;;;13.45;;
32108;SDS011;18624;50.042;8.436;2024-03-22T04:28:59;17.55;;;13.65;;
32108;SDS011;18624;50.042;8.436;2024-03-22T04:31:24;18.88;;;13.38;;
32108;SDS011;18624;50.042;8.436;2024-03-22T04:33:50;18.80;;;14.75;;
32108;SDS011;18624;50.042;8.436;2024-03-22T04:36:15;20.55;;;14.82;;
32108;SDS011;18624;50.042;8.436;2024-03-22T04:38:41;18.77;;;14.18;;
32108;SDS011;18624;50.042;8.436;2024-03-22T04:41:07;19.35;;;14.50;;
32108;SDS011;18624;50.042;8.436;2024-03-22T04:43:32;19.60;;;15.68;;
32108;SDS011;18624;50.042;8.436;2024-03-22T04:45:58;18.05;;;13.77;;
32108;SDS011;18624;50.042;8.436;2024-03-22T04:48:23;22.80;;;14.98;;
32108;SDS011;18624;50.042;8.436;2024-03-22T04:50:49;19.20;;;15.85;;
32108;SDS011;18624;50.042;8.436;2024-03-22T04:53:17;17.08;;;14.93;;
32108;SDS011;18624;50.042;8.436;2024-03-22T04:55:46;20.00;;;13.40;;
32108;SDS011;18624;50.042;8.436;2024-03-22T04:58:15;18.38;;;13.75;;
32108;SDS011;18624;50.042;8.436;2024-03-22T05:00:46;22.02;;;16.02;;
32108;SDS011;18624;50.042;8.436;2024-03-22T05:03:13;19.60;;;14.48;;
32108;SDS011;18624;50.042;8.436;2024-03-22T05:05:39;16.08;;;12.98;;
32108;SDS011;18624;50.042;8.436;2024-03-22T05:08:06;18.48;;;13.48;;
32108;SDS011;18624;50.042;8.436;2024-03-22T05:10:32;18.38;;;14.10;;
32108;SDS011;18624;50.042;8.436;2024-03-22T05:12:58;20.17;;;15.25;;
32108;SDS011;18624;50.042;8.436;2024-03-22T05:15:24;23.50;;;16.13;;
32108;SDS011;18624;50.042;8.436;2024-03-22T05:17:53;21.27;;;14.68;;
32108;SDS011;18624;50.042;8.436;2024-03-22T05:20:19;20.35;;;15.27;;
32108;SDS011;18624;50.042;8.436;2024-03-22T05:22:46;23.40;;;15.85;;
32108;SDS011;18624;50.042;8.436;2024-03-22T05:25:12;23.90;;;16.58;;
32108;SDS011;18624;50.042;8.436;2024-03-22T05:27:40;21.40;;;15.15;;
32108;SDS011;18624;50.042;8.436;2024-03-22T05:30:07;20.15;;;15.30;;
32108;SDS011;18624;50.042;8.436;2024-03-22T05:32:34;24.10;;;16.67;;
32108;SDS011;18624;50.042;8.436;2024-03-22T05:34:59;21.15;;;15.35;;
32108;SDS011;18624;50.042;8.436;2024-03-22T05:37:25;19.23;;;14.73;;
32108;SDS011;18624;50.042;8.436;2024-03-22T05:39:50;20.27;;;15.32;;
32108;SDS011;18624;50.042;8.436;2024-03-22T05:42:16;21.23;;;14.85;;
32108;SDS011;18624;50.042;8.436;2024-03-22T05:44:41;18.58;;;13.95;;
32108;SDS011;18624;50.042;8.436;2024-03-22T05:47:08;21.95;;;15.65;;
32108;SDS011;18624;50.042;8.436;2024-03-22T05:49:33;20.25;;;15.10;;
32108;SDS011;18624;50.042;8.436;2024-03-22T05:51:59;19.70;;;14.80;;
32108;SDS011;18624;50.042;8.436;2024-03-22T05:54:24;18.67;;;14.23;;
32108;SDS011;18624;50.042;8.436;2024-03-22T05:56:50;24.60;;;16.48;;
32108;SDS011;18624;50.042;8.436;2024-03-22T05:59:15;26.65;;;14.77;;
32108;SDS011;18624;50.042;8.436;2024-03-22T06:01:41;20.45;;;15.52;;
32108;SDS011;18624;50.042;8.436;2024-03-22T06:04:06;23.95;;;16.60;;
32108;SDS011;18624;50.042;8.436;2024-03-22T06:06:33;21.60;;;14.50;;
32108;SDS011;18624;50.042;8.436;2024-03-22T06:09:00;23.98;;;15.55;;
32108;SDS011;18624;50.042;8.436;2024-03-22T06:11:29;20.60;;;14.07;;
32108;SDS011;18624;50.042;8.436;2024-03-22T06:13:57;20.52;;;15.38;;
32108;SDS011;18624;50.042;8.436;2024-03-22T06:16:22;20.58;;;14.63;;
32108;SDS011;18624;50.042;8.436;2024-03-22T06:18:48;20.70;;;14.93;;
32108;SDS011;18624;50.042;8.436;2024-03-22T06:21:13;19.38;;;15.43;;
32108;SDS011;18624;50.042;8.436;2024-03-22T06:23:48;22.17;;;14.60;;
32108;SDS011;18624;50.042;8.436;2024-03-22T06:26:15;17.48;;;13.63;;
32108;SDS011;18624;50.042;8.436;2024-03-22T06:28:40;23.63;;;16.55;;
32108;SDS011;18624;50.042;8.436;2024-03-22T06:31:06;17.75;;;13.40;;
32108;SDS011;18624;50.042;8.436;2024-03-22T06:33:31;20.52;;;14.45;;
32108;SDS011;18624;50.042;8.436;2024-03-22T06:35:57;18.38;;;14.32;;
32108;SDS011;18624;50.042;8.436;2024-03-22T06:38:22;18.05;;;12.63;;
32108;SDS011;18624;50.042;8.436;2024-03-22T06:40:48;18.45;;;14.18;;
32108;SDS011;18624;50.042;8.436;2024-03-22T06:43:13;19.90;;;15.10;;
32108;SDS011;18624;50.042;8.436;2024-03-22T06:45:39;19.45;;;15.43;;
32108;SDS011;18624;50.042;8.436;2024-03-22T06:48:04;20.42;;;14.48;;
32108;SDS011;18624;50.042;8.436;2024-03-22T06:50:30;19.65;;;14.02;;
32108;SDS011;18624;50.042;8.436;2024-03-22T06:52:56;18.17;;;12.35;;
32108;SDS011;18624;50.042;8.436;2024-03-22T06:55:21;18.00;;;12.48;;
32108;SDS011;18624;50.042;8.436;2024-03-22T06:57:50;15.38;;;11.95;;
32108;SDS011;18624;50.042;8.436;2024-03-22T07:00:17;18.92;;;14.35;;
32108;SDS011;18624;50.042;8.436;2024-03-22T07:02:43;21.50;;;14.40;;
32108;SDS011;18624;50.042;8.436;2024-03-22T07:05:09;20.35;;;14.00;;
32108;SDS011;18624;50.042;8.436;2024-03-22T07:07:35;20.48;;;14.48;;
32108;SDS011;18624;50.042;8.436;2024-03-22T07:10:02;15.48;;;12.27;;
32108;SDS011;18624;50.042;8.436;2024-03-22T07:12:28;22.48;;;15.60;;
32108;SDS011;18624;50.042;8.436;2024-03-22T07:14:54;22.00;;;15.30;;
32108;SDS011;18624;50.042;8.436;2024-03-22T07:17:20;17.40;;;13.68;;
32108;SDS011;18624;50.042;8.436;2024-03-22T07:19:52;20.58;;;14.65;;
32108;SDS011;18624;50.042;8.436;2024-03-22T07:22:19;20.60;;;15.20;;
32108;SDS011;18624;50.042;8.436;2024-03-22T07:24:45;22.08;;;15.20;;
32108;SDS011;18624;50.042;8.436;2024-03-22T07:27:11;18.73;;;13.85;;
32108;SDS011;18624;50.042;8.436;2024-03-22T07:29:37;18.05;;;12.77;;
32108;SDS011;18624;50.042;8.436;2024-03-22T07:32:03;19.20;;;14.63;;
32108;SDS011;18624;50.042;8.436;2024-03-22T07:34:28;20.80;;;13.82;;
32108;SDS011;18624;50.042;8.436;2024-03-22T07:36:54;22.42;;;16.10;;
32108;SDS011;18624;50.042;8.436;2024-03-22T07:39:20;18.67;;;12.95;;
32108;SDS011;18624;50.042;8.436;2024-03-22T07:41:45;19.85;;;12.90;;
32108;SDS011;18624;50.042;8.436;2024-03-22T07:44:11;20.50;;;13.88;;
32108;SDS011;18624;50.042;8.436;2024-03-22T07:46:36;22.60;;;15.73;;
32108;SDS011;18624;50.042;8.436;2024-03-22T07:49:02;24.20;;;14.25;;
32108;SDS011;18624;50.042;8.436;2024-03-22T07:51:29;18.98;;;14.30;;
32108;SDS011;18624;50.042;8.436;2024-03-22T07:53:57;19.90;;;13.75;;
32108;SDS011;18624;50.042;8.436;2024-03-22T07:56:22;19.92;;;14.55;;
32108;SDS011;18624;50.042;8.436;2024-03-22T07:58:48;20.33;;;14.60;;
32108;SDS011;18624;50.042;8.436;2024-03-22T08:01:13;22.92;;;16.90;;
32108;SDS011;18624;50.042;8.436;2024-03-22T08:03:39;21.27;;;14.77;;
32108;SDS011;18624;50.042;8.436;2024-03-22T08:06:04;20.75;;;14.73;;
32108;SDS011;18624;50.042;8.436;2024-03-22T08:08:30;21.35;;;15.23;;
32108;SDS011;18624;50.042;8.436;2024-03-22T08:10:56;18.95;;;13.43;;
32108;SDS011;18624;50.042;8.436;2024-03-22T08:13:21;20.23;;;14.40;;
32108;SDS011;18624;50.042;8.436;2024-03-22T08:15:47;20.38;;;15.23;;
32108;SDS011;18624;50.042;8.436;2024-03-22T08:18:12;20.85;;;15.20;;
32108;SDS011;18624;50.042;8.436;2024-03-22T08:20:38;19.30;;;13.32;;
32108;SDS011;18624;50.042;8.436;2024-03-22T08:23:04;19.85;;;12.75;;
32108;SDS011;18624;50.042;8.436;2024-03-22T08:25:33;20.10;;;13.75;;
32108;SDS011;18624;50.042;8.436;2024-03-22T08:27:58;16.08;;;12.32;;
32108;SDS011;18624;50.042;8.436;2024-03-22T08:30:24;19.30;;;13.90;;
32108;SDS011;18624;50.042;8.436;2024-03-22T08:32:53;17.05;;;12.75;;
32108;SDS011;18624;50.042;8.436;2024-03-22T08:35:18;17.15;;;13.75;;
32108;SDS011;18624;50.042;8.436;2024-03-22T08:37:44;17.65;;;12.30;;
32108;SDS011;18624;50.042;8.436;2024-03-22T08:40:09;15.38;;;10.98;;
32108;SDS011;18624;50.042;8.436;2024-03-22T08:42:36;14.82;;;10.27;;
32108;SDS011;18624;50.042;8.436;2024-03-22T08:45:01;13.95;;;11.60;;
32108;SDS011;18624;50.042;8.436;2024-03-22T08:47:29;15.93;;;11.60;;
32108;SDS011;18624;50.042;8.436;2024-03-22T08:49:55;14.43;;;11.10;;
32108;SDS011;18624;50.042;8.436;2024-03-22T08:52:23;14.82;;;12.05;;
32108;SDS011;18624;50.042;8.436;2024-03-22T08:54:50;14.10;;;11.63;;
32108;SDS011;18624;50.042;8.436;2024-03-22T08:57:18;15.27;;;11.40;;
32108;SDS011;18624;50.042;8.436;2024-03-22T08:59:45;17.05;;;11.85;;
32108;SDS011;18624;50.042;8.436;2024-03-22T09:02:10;16.60;;;11.80;;
32108;SDS011;18624;50.042;8.436;2024-03-22T09:04:36;13.50;;;11.00;;
32108;SDS011;18624;50.042;8.436;2024-03-22T09:07:02;13.70;;;11.60;;
32108;SDS011;18624;50.042;8.436;2024-03-22T09:09:28;15.50;;;11.60;;
32108;SDS011;18624;50.042;8.436;2024-03-22T09:11:54;15.13;;;12.13;;
32108;SDS011;18624;50.042;8.436;2024-03-22T09:14:19;15.48;;;11.45;;
32108;SDS011;18624;50.042;8.436;2024-03-22T09:16:45;15.95;;;11.32;;
32108;SDS011;18624;50.042;8.436;2024-03-22T09:19:11;15.00;;;10.70;;
32108;SDS011;18624;50.042;8.436;2024-03-22T09:21:36;16.88;;;11.73;;
32108;SDS011;18624;50.042;8.436;2024-03-22T09:24:02;17.38;;;11.93;;
32108;SDS011;18624;50.042;8.436;2024-03-22T09:26:31;16.73;;;11.27;;
32108;SDS011;18624;50.042;8.436;2024-03-22T09:28:58;11.95;;;9.75;;
32108;SDS011;18624;50.042;8.436;2024-03-22T09:31:24;14.20;;;10.88;;
32108;SDS011;18624;50.042;8.436;2024-03-22T09:33:49;16.70;;;11.95;;
32108;SDS011;18624;50.042;8.436;2024-03-22T09:36:15;16.85;;;11.95;;
32108;SDS011;18624;50.042;8.436;2024-03-22T09:38:41;17.17;;;11.85;;
32108;SDS011;18624;50.042;8.436;2024-03-22T09:41:06;14.95;;;11.07;;
32108;SDS011;18624;50.042;8.436;2024-03-22T09:43:32;12.85;;;10.82;;
32108;SDS011;18624;50.042;8.436;2024-03-22T09:45:59;14.43;;;10.32;;
32108;SDS011;18624;50.042;8.436;2024-03-22T09:48:25;21.58;;;10.68;;
32108;SDS011;18624;50.042;8.436;2024-03-22T09:50:53;15.38;;;10.35;;
32108;SDS011;18624;50.042;8.436;2024-03-22T09:53:19;11.30;;;9.10;;
32108;SDS011;18624;50.042;8.436;2024-03-22T09:55:47;12.73;;;10.38;;
32108;SDS011;18624;50.042;8.436;2024-03-22T09:58:13;10.40;;;9.35;;
32108;SDS011;18624;50.042;8.436;2024-03-22T10:00:40;12.63;;;9.70;;
32108;SDS011;18624;50.042;8.436;2024-03-22T10:03:05;12.23;;;9.82;;
32108;SDS011;18624;50.042;8.436;2024-03-22T10:05:32;13.48;;;10.05;;
32108;SDS011;18624;50.042;8.436;2024-03-22T10:07:59;13.25;;;10.70;;
32108;SDS011;18624;50.042;8.436;2024-03-22T10:10:25;12.77;;;9.98;;
32108;SDS011;18624;50.042;8.436;2024-03-22T10:12:51;11.55;;;9.50;;
32108;SDS011;18624;50.042;8.436;2024-03-22T10:15:18;13.77;;;10.30;;
32108;SDS011;18624;50.042;8.436;2024-03-22T10:17:44;13.18;;;10.40;;
32108;SDS011;18624;50.042;8.436;2024-03-22T10:20:12;15.60;;;10.35;;
32108;SDS011;18624;50.042;8.436;2024-03-22T10:22:49;13.15;;;9.77;;
32108;SDS011;18624;50.042;8.436;2024-03-22T10:25:20;13.48;;;9.00;;
32108;SDS011;18624;50.042;8.436;2024-03-22T10:27:47;10.00;;;8.65;;
32108;SDS011;18624;50.042;8.436;2024-03-22T10:30:13;13.15;;;9.82;;
32108;SDS011;18624;50.042;8.436;2024-03-22T10:32:44;14.05;;;9.40;;
32108;SDS011;18624;50.042;8.436;2024-03-22T10:35:13;11.95;;;9.70;;
32108;SDS011;18624;50.042;8.436;2024-03-22T10:37:40;13.63;;;10.18;;
32108;SDS011;18624;50.042;8.436;2024-03-22T10:40:06;11.68;;;10.10;;
32108;SDS011;18624;50.042;8.436;2024-03-22T10:42:35;11.70;;;9.52;;
32108;SDS011;18624;50.042;8.436;2024-03-22T10:45:03;13.30;;;8.43;;
32108;SDS011;18624;50.042;8.436;2024-03-22T10:47:31;11.95;;;9.27;;
32108;SDS011;18624;50.042;8.436;2024-03-22T10:50:03;11.50;;;9.65;;
32108;SDS011;18624;50.042;8.436;2024-03-22T10:52:51;13.45;;;10.38;;
32108;SDS011;18624;50.042;8.436;2024-03-22T10:55:32;13.80;;;9.95;;
32108;SDS011;18624;50.042;8.436;2024-03-22T10:58:00;11.45;;;9.27;;
32108;SDS011;18624;50.042;8.436;2024-03-22T11:00:33;12.75;;;9.00;;
32108;SDS011;18624;50.042;8.436;2024-03-22T11:03:03;11.60;;;10.43;;
32108;SDS011;18624;50.042;8.436;2024-03-22T11:05:29;11.00;;;9.25;;
32108;SDS011;18624;50.042;8.436;2024-03-22T11:08:05;12.10;;;9.77;;
32108;SDS011;18624;50.042;8.436;2024-03-22T11:10:34;10.35;;;8.60;;
32108;SDS011;18624;50.042;8.436;2024-03-22T11:13:03;14.50;;;9.52;;
32108;SDS011;18624;50.042;8.436;2024-03-22T11:15:29;12.25;;;9.57;;
32108;SDS011;18624;50.042;8.436;2024-03-22T11:17:56;15.98;;;11.80;;
32108;SDS011;18624;50.042;8.436;2024-03-22T11:20:22;13.80;;;9.85;;
32108;SDS011;18624;50.042;8.436;2024-03-22T11:22:47;12.27;;;9.82;;
32108;SDS011;18624;50.042;8.436;2024-03-22T11:25:13;11.77;;;9.57;;
32108;SDS011;18624;50.042;8.436;2024-03-22T11:27:39;14.73;;;9.43;;
32108;SDS011;18624;50.042;8.436;2024-03-22T11:30:04;12.55;;;9.93;;
32108;SDS011;18624;50.042;8.436;2024-03-22T11:32:30;12.55;;;10.13;;
32108;SDS011;18624;50.042;8.436;2024-03-22T11:34:56;15.07;;;9.93;;
32108;SDS011;18624;50.042;8.436;2024-03-22T11:37:22;15.07;;;9.52;;
32108;SDS011;18624;50.042;8.436;2024-03-22T11:39:48;10.50;;;8.07;;
32108;SDS011;18624;50.042;8.436;2024-03-22T11:42:13;10.90;;;9.52;;
32108;SDS011;18624;50.042;8.436;2024-03-22T11:44:40;11.73;;;8.52;;
32108;SDS011;18624;50.042;8.436;2024-03-22T11:47:06;11.32;;;9.32;;
32108;SDS011;18624;50.042;8.436;2024-03-22T11:49:32;13.13;;;8.93;;
32108;SDS011;18624;50.042;8.436;2024-03-22T11:52:00;10.10;;;8.55;;
32108;SDS011;18624;50.042;8.436;2024-03-22T11:54:25;10.75;;;9.45;;
32108;SDS011;18624;50.042;8.436;2024-03-22T11:56:51;14.02;;;9.27;;
32108;SDS011;18624;50.042;8.436;2024-03-22T11:59:20;11.55;;;9.85;;
32108;SDS011;18624;50.042;8.436;2024-03-22T12:01:46;12.70;;;9.05;;
32108;SDS011;18624;50.042;8.436;2024-03-22T12:04:12;11.60;;;9.02;;
32108;SDS011;18624;50.042;8.436;2024-03-22T12:06:44;15.60;;;8.27;;
32108;SDS011;18624;50.042;8.436;2024-03-22T12:09:11;12.77;;;9.85;;
32108;SDS011;18624;50.042;8.436;2024-03-22T12:11:39;13.45;;;9.60;;
32108;SDS011;18624;50.042;8.436;2024-03-22T12:14:05;11.95;;;9.50;;
32108;SDS011;18624;50.042;8.436;2024-03-22T12:16:31;10.73;;;9.32;;
32108;SDS011;18624;50.042;8.436;2024-03-22T12:18:57;14.98;;;9.82;;
32108;SDS011;18624;50.042;8.436;2024-03-22T12:21:23;12.93;;;9.55;;
32108;SDS011;18624;50.042;8.436;2024-03-22T12:23:49;15.75;;;10.82;;
32108;SDS011;18624;50.042;8.436;2024-03-22T12:26:15;29.17;;;15.55;;
32108;SDS011;18624;50.042;8.436;2024-03-22T12:28:40;14.18;;;10.68;;
32108;SDS011;18624;50.042;8.436;2024-03-22T12:31:07;15.35;;;10.00;;
32108;SDS011;18624;50.042;8.436;2024-03-22T12:33:33;13.70;;;10.07;;
32108;SDS011;18624;50.042;8.436;2024-03-22T12:35:59;10.65;;;9.55;;
32108;SDS011;18624;50.042;8.436;2024-03-22T12:38:25;13.15;;;9.23;;
32108;SDS011;18624;50.042;8.436;2024-03-22T12:40:50;12.30;;;9.65;;
32108;SDS011;18624;50.042;8.436;2024-03-22T12:43:16;13.45;;;8.25;;
32108;SDS011;18624;50.042;8.436;2024-03-22T12:45:42;14.25;;;10.05;;
32108;SDS011;18624;50.042;8.436;2024-03-22T12:48:07;11.52;;;9.30;;
32108;SDS011;18624;50.042;8.436;2024-03-22T12:50:34;12.90;;;10.18;;
32108;SDS011;18624;50.042;8.436;2024-03-22T12:53:00;14.63;;;10.88;;
32108;SDS011;18624;50.042;8.436;2024-03-22T12:55:26;13.48;;;9.82;;
32108;SDS011;18624;50.042;8.436;2024-03-22T12:57:53;13.70;;;11.05;;
32108;SDS011;18624;50.042;8.436;2024-03-22T13:00:19;12.18;;;10.18;;
32108;SDS011;18624;50.042;8.436;2024-03-22T13:02:45;15.48;;;10.95;;
32108;SDS011;18624;50.042;8.436;2024-03-22T13:05:11;12.70;;;9.73;;
32108;SDS011;18624;50.042;8.436;2024-03-22T13:07:37;13.85;;;10.05;;
32108;SDS011;18624;50.042;8.436;2024-03-22T13:10:03;11.07;;;8.73;;
32108;SDS011;18624;50.042;8.436;2024-03-22T13:12:29;10.70;;;8.77;;
32108;SDS011;18624;50.042;8.436;2024-03-22T13:14:56;14.77;;;9.20;;
32108;SDS011;18624;50.042;8.436;2024-03-22T13:17:22;12.50;;;9.93;;
32108;SDS011;18624;50.042;8.436;2024-03-22T13:19:48;13.60;;;9.57;;
32108;SDS011;18624;50.042;8.436;2024-03-22T13:22:15;11.50;;;9.63;;
32108;SDS011;18624;50.042;8.436;2024-03-22T13:24:46;14.25;;;9.93;;
32108;SDS011;18624;50.042;8.436;2024-03-22T13:27:13;11.65;;;10.40;;
32108;SDS011;18624;50.042;8.436;2024-03-22T13:29:39;14.82;;;10.13;;
32108;SDS011;18624;50.042;8.436;2024-03-22T13:32:05;13.43;;;10.13;;
32108;SDS011;18624;50.042;8.436;2024-03-22T13:34:36;11.95;;;10.00;;
32108;SDS011;18624;50.042;8.436;2024-03-22T13:37:02;12.75;;;10.48;;
32108;SDS011;18624;50.042;8.436;2024-03-22T13:39:28;18.23;;;11.38;;
32108;SDS011;18624;50.042;8.436;2024-03-22T13:41:56;14.82;;;10.52;;
32108;SDS011;18624;50.042;8.436;2024-03-22T13:44:22;12.95;;;10.23;;
32108;SDS011;18624;50.042;8.436;2024-03-22T13:46:51;12.32;;;10.18;;
32108;SDS011;18624;50.042;8.436;2024-03-22T13:49:17;14.38;;;9.80;;
32108;SDS011;18624;50.042;8.436;2024-03-22T13:51:46;13.20;;;10.20;;
32108;SDS011;18624;50.042;8.436;2024-03-22T13:54:12;13.52;;;10.73;;
32108;SDS011;18624;50.042;8.436;2024-03-22T13:56:38;12.93;;;11.57;;
32108;SDS011;18624;50.042;8.436;2024-03-22T13:59:04;23.27;;;13.13;;
32108;SDS011;18624;50.042;8.436;2024-03-22T14:01:35;15.50;;;10.57;;
32108;SDS011;18624;50.042;8.436;2024-03-22T14:04:02;14.43;;;10.75;;
32108;SDS011;18624;50.042;8.436;2024-03-22T14:06:31;16.33;;;10.90;;
32108;SDS011;18624;50.042;8.436;2024-03-22T14:08:57;14.90;;;10.98;;
32108;SDS011;18624;50.042;8.436;2024-03-22T14:11:29;12.70;;;11.45;;
32108;SDS011;18624;50.042;8.436;2024-03-22T14:13:59;12.82;;;11.15;;
32108;SDS011;18624;50.042;8.436;2024-03-22T14:16:25;16.75;;;12.07;;
32108;SDS011;18624;50.042;8.436;2024-03-22T14:18:51;15.77;;;12.23;;